createdAt,value
2023-08-14T00:00:55.075Z,53.26
2023-08-14T00:04:12.363Z,53.25
2023-08-14T00:07:15.240Z,53.79
2023-08-14T00:10:18.198Z,53.51
2023-08-14T00:13:22.201Z,53.54
2023-08-14T00:16:26.145Z,53.59
2023-08-14T00:19:28.960Z,53.98
2023-08-14T00:22:31.934Z,53.96
2023-08-14T00:25:34.808Z,54.43
2023-08-14T00:28:37.776Z,54.36
2023-08-14T00:31:40.661Z,54.51
2023-08-14T00:34:43.527Z,54.53
2023-08-14T00:37:48.670Z,54.70
2023-08-14T00:40:54.211Z,55.08
2023-08-14T00:43:57.137Z,55.21
2023-08-14T00:47:00.008Z,55.22
2023-08-14T00:50:05.436Z,55.75
2023-08-14T00:53:08.821Z,55.42
2023-08-14T00:56:11.596Z,55.77
2023-08-14T00:59:14.354Z,55.79
2023-08-14T01:02:17.544Z,55.81
2023-08-14T01:05:20.816Z,55.72
2023-08-14T01:08:23.778Z,56.03
2023-08-14T01:11:44.980Z,56.47
2023-08-14T01:14:53.973Z,56.43
2023-08-14T01:18:03.069Z,56.93
2023-08-14T01:21:31.750Z,56.90
2023-08-14T01:25:07.675Z,57.21
2023-08-14T01:28:11.560Z,56.94
2023-08-14T01:31:14.649Z,56.96
2023-08-14T01:34:17.825Z,56.91
2023-08-14T01:37:34.298Z,57.18
2023-08-14T01:41:01.220Z,57.29
2023-08-14T01:44:07.358Z,57.89
2023-08-14T01:47:14.530Z,57.42
2023-08-14T01:50:18.319Z,57.43
2023-08-14T01:53:21.196Z,57.86
2023-08-14T01:56:24.059Z,57.76
2023-08-14T01:59:43.090Z,58.19
2023-08-14T02:02:45.925Z,58.13
2023-08-14T02:05:48.840Z,58.10
2023-08-14T02:08:51.605Z,58.26
2023-08-14T02:11:55.340Z,58.48
2023-08-14T02:14:58.785Z,58.75
2023-08-14T02:18:01.795Z,58.68
2023-08-14T02:21:04.565Z,58.76
2023-08-14T02:24:08.372Z,59.00
2023-08-14T02:27:11.280Z,58.97
2023-08-14T02:30:14.359Z,59.01
2023-08-14T02:33:17.228Z,59.32
2023-08-14T02:36:20.001Z,59.29
2023-08-14T02:39:22.763Z,59.31
2023-08-14T02:42:25.631Z,59.44
2023-08-14T02:45:28.832Z,59.56
2023-08-14T02:48:31.636Z,59.59
2023-08-14T02:51:34.447Z,59.76
2023-08-14T02:54:37.216Z,60.00
2023-08-14T02:57:40.082Z,60.11
2023-08-14T03:00:42.949Z,61.22
2023-08-14T03:03:51.360Z,61.01
2023-08-14T03:06:54.221Z,61.14
2023-08-14T03:09:57.796Z,61.67
2023-08-14T03:13:02.518Z,61.65
2023-08-14T03:16:05.393Z,61.60
2023-08-14T03:19:08.271Z,61.45
2023-08-14T03:22:11.127Z,61.49
2023-08-14T03:25:14.094Z,61.62
2023-08-14T03:28:16.910Z,61.71
2023-08-14T03:31:19.762Z,61.71
2023-08-14T03:34:22.626Z,61.68
2023-08-14T03:37:25.501Z,61.68
2023-08-14T03:40:28.765Z,62.01
2023-08-14T03:43:31.842Z,62.09
2023-08-14T03:46:34.633Z,62.58
2023-08-14T03:49:37.623Z,62.59
2023-08-14T03:52:40.644Z,62.43
2023-08-14T03:55:45.871Z,62.32
2023-08-14T03:58:48.741Z,62.41
2023-08-14T04:01:51.548Z,62.36
2023-08-14T04:04:54.377Z,62.51
2023-08-14T04:07:57.249Z,62.77
2023-08-14T04:11:00.116Z,62.74
2023-08-14T04:14:03.706Z,62.97
2023-08-14T04:17:06.572Z,63.05
2023-08-14T04:20:10.961Z,63.03
2023-08-14T04:23:13.746Z,63.00
2023-08-14T04:26:16.515Z,62.85
2023-08-14T04:29:19.600Z,62.99
2023-08-14T04:32:22.362Z,63.21
2023-08-14T04:35:28.057Z,64.34
2023-08-14T04:38:31.372Z,64.65
2023-08-14T04:41:34.367Z,65.03
2023-08-14T04:44:37.214Z,64.85
2023-08-14T04:47:40.134Z,64.72
2023-08-14T04:50:43.057Z,64.58
2023-08-14T04:53:45.821Z,64.54
2023-08-14T04:56:48.591Z,64.52
2023-08-14T04:59:51.358Z,64.47
2023-08-14T05:02:54.180Z,64.43
2023-08-14T05:05:57.103Z,64.47
2023-08-14T05:09:02.156Z,64.46
2023-08-14T05:12:07.449Z,64.23
2023-08-14T05:15:11.136Z,64.63
2023-08-14T05:18:14.109Z,64.64
2023-08-14T05:21:16.977Z,64.81
2023-08-14T05:24:19.745Z,64.51
2023-08-14T05:27:22.508Z,64.32
2023-08-14T05:30:25.498Z,64.35
2023-08-14T05:33:28.269Z,64.47
2023-08-14T05:36:30.969Z,64.35
2023-08-14T05:39:33.811Z,64.54
2023-08-14T05:42:36.660Z,64.38
2023-08-14T05:45:43.524Z,64.29
2023-08-14T05:48:47.406Z,64.07
2023-08-14T05:51:50.180Z,63.91
2023-08-14T05:54:53.052Z,63.69
2023-08-14T05:57:57.460Z,63.69
2023-08-14T06:01:00.378Z,63.53
2023-08-14T06:04:04.143Z,63.46
2023-08-14T06:07:06.984Z,63.31
2023-08-14T06:10:10.162Z,63.02
2023-08-14T06:13:13.030Z,62.86
2023-08-14T06:16:15.826Z,62.48
2023-08-14T06:19:19.285Z,62.32
2023-08-14T06:22:22.050Z,62.28
2023-08-14T06:25:26.777Z,62.19
2023-08-14T06:28:29.484Z,62.35
2023-08-14T06:31:32.297Z,62.32
2023-08-14T06:34:35.271Z,62.29
2023-08-14T06:37:38.037Z,61.79
2023-08-14T06:40:40.812Z,61.91
2023-08-14T06:43:43.784Z,61.94
2023-08-14T06:46:46.824Z,61.81
2023-08-14T06:49:50.130Z,61.74
2023-08-14T06:52:54.022Z,61.43
2023-08-14T06:55:57.212Z,61.24
2023-08-14T06:58:59.976Z,61.18
2023-08-14T07:02:02.968Z,61.03
2023-08-14T07:05:05.810Z,61.13
2023-08-14T07:08:08.532Z,60.99
2023-08-14T07:11:11.259Z,60.24
2023-08-14T07:14:14.470Z,60.07
2023-08-14T07:17:17.702Z,60.21
2023-08-14T07:20:25.904Z,60.19
2023-08-14T07:23:29.583Z,59.78
2023-08-14T07:26:32.461Z,59.60
2023-08-14T07:29:36.306Z,59.22
2023-08-14T07:32:39.380Z,58.77
2023-08-14T07:35:43.233Z,58.56
2023-08-14T07:38:46.082Z,58.44
2023-08-14T07:41:48.946Z,57.10
2023-08-14T07:44:51.923Z,56.53
2023-08-14T07:47:55.434Z,55.28
2023-08-14T07:50:58.292Z,55.78
2023-08-14T07:54:01.295Z,55.94
2023-08-14T07:57:04.839Z,55.17
2023-08-14T08:00:08.943Z,55.11
2023-08-14T08:03:11.931Z,55.31
2023-08-14T08:06:14.929Z,55.32
2023-08-14T08:09:18.564Z,55.22
2023-08-14T08:12:21.443Z,54.85
2023-08-14T08:15:24.207Z,55.07
2023-08-14T08:18:27.078Z,55.25
2023-08-14T08:21:29.938Z,54.43
2023-08-14T08:24:32.706Z,54.12
2023-08-14T08:27:36.912Z,52.57
2023-08-14T08:30:40.412Z,52.80
2023-08-14T08:33:43.268Z,53.31
2023-08-14T08:36:46.029Z,53.17
2023-08-14T08:39:49.617Z,52.77
2023-08-14T08:42:52.900Z,50.19
2023-08-14T08:45:59.571Z,50.54
2023-08-14T08:49:04.729Z,50.89
2023-08-14T08:52:08.884Z,51.28
2023-08-14T08:55:14.335Z,51.17
2023-08-14T08:58:20.347Z,50.48
2023-08-14T09:01:23.587Z,49.34
2023-08-14T09:04:26.767Z,49.59
2023-08-14T09:07:29.873Z,49.76
2023-08-14T09:10:32.746Z,49.72
2023-08-14T09:13:35.721Z,49.82
2023-08-14T09:16:38.493Z,50.17
2023-08-14T09:19:41.460Z,50.25
2023-08-14T09:22:44.436Z,49.52
2023-08-14T09:25:48.119Z,49.16
2023-08-14T09:28:51.868Z,48.76
2023-08-14T09:31:54.824Z,48.51
2023-08-14T09:35:04.711Z,47.91
2023-08-14T09:38:07.590Z,48.59
2023-08-14T09:41:10.455Z,48.24
2023-08-14T09:44:13.431Z,47.95
2023-08-14T09:47:16.811Z,48.05
2023-08-14T09:50:22.600Z,48.04
2023-08-14T09:53:25.337Z,47.94
2023-08-14T09:56:28.115Z,48.27
2023-08-14T09:59:30.837Z,48.41
2023-08-14T10:02:35.032Z,47.89
2023-08-14T10:05:39.242Z,47.85
2023-08-14T10:08:45.934Z,47.71
2023-08-14T10:11:49.456Z,47.62
2023-08-14T10:15:02.975Z,47.10
2023-08-14T10:18:11.467Z,46.06
2023-08-14T10:21:17.383Z,46.28
2023-08-14T10:24:21.032Z,46.21
2023-08-14T10:27:24.607Z,45.48
2023-08-14T10:30:28.687Z,45.65
2023-08-14T10:33:32.111Z,45.53
2023-08-14T10:36:34.918Z,45.03
2023-08-14T10:39:37.937Z,44.98
2023-08-14T10:42:48.790Z,44.16
2023-08-14T10:45:53.181Z,43.89
2023-08-14T10:48:55.908Z,44.57
2023-08-14T10:52:02.912Z,45.02
2023-08-14T10:55:16.529Z,44.87
2023-08-14T10:58:32.561Z,45.26
2023-08-14T11:01:38.402Z,45.29
2023-08-14T11:05:00.363Z,44.90
2023-08-14T11:08:04.319Z,45.08
2023-08-14T11:11:07.108Z,45.13
2023-08-14T11:14:10.806Z,44.84
2023-08-14T11:17:13.675Z,45.02
2023-08-14T11:20:16.957Z,44.93
2023-08-14T11:23:19.720Z,44.98
2023-08-14T11:26:22.492Z,44.95
2023-08-14T11:29:25.559Z,44.99
2023-08-14T11:32:28.681Z,44.80
2023-08-14T11:35:31.978Z,44.92
2023-08-14T11:38:34.884Z,44.90
2023-08-14T11:41:37.652Z,44.77
2023-08-14T11:44:40.534Z,44.66
2023-08-14T11:47:49.088Z,44.65
2023-08-14T11:50:51.999Z,44.68
2023-08-14T11:53:55.177Z,44.58
2023-08-14T11:56:58.042Z,44.78
2023-08-14T12:00:03.950Z,44.84
2023-08-14T12:03:08.683Z,44.83
2023-08-14T12:06:12.291Z,44.93
2023-08-14T12:09:15.051Z,45.01
2023-08-14T12:12:18.402Z,45.13
2023-08-14T12:15:24.295Z,45.22
2023-08-14T12:18:27.871Z,45.06
2023-08-14T12:21:30.829Z,45.25
2023-08-14T12:24:44.696Z,45.24
2023-08-14T12:27:47.666Z,45.35
2023-08-14T12:30:51.231Z,45.26
2023-08-14T12:33:59.444Z,45.41
2023-08-14T12:37:09.042Z,45.28
2023-08-14T12:40:12.087Z,45.07
2023-08-14T12:43:15.102Z,45.03
2023-08-14T12:46:18.078Z,44.72
2023-08-14T12:49:20.911Z,44.31
2023-08-14T12:52:27.514Z,43.63
2023-08-14T12:55:31.772Z,43.06
2023-08-14T12:58:34.566Z,42.89
2023-08-14T13:01:37.631Z,41.61
2023-08-14T13:07:43.757Z,42.23
2023-08-14T13:10:46.523Z,42.02
2023-08-14T13:13:51.048Z,41.71
2023-08-14T13:16:53.880Z,41.54
2023-08-14T13:19:56.773Z,41.13
2023-08-14T13:22:59.554Z,41.30
2023-08-14T13:26:02.360Z,40.63
2023-08-14T13:29:05.383Z,40.80
2023-08-14T13:32:08.118Z,40.81
2023-08-14T13:35:10.934Z,40.63
2023-08-14T13:38:13.989Z,40.23
2023-08-14T13:41:16.960Z,40.39
2023-08-14T13:44:19.934Z,40.73
2023-08-14T13:47:23.650Z,41.10
2023-08-14T13:50:34.753Z,41.14
2023-08-14T13:53:37.962Z,40.42
2023-08-14T13:56:40.839Z,40.02
2023-08-14T13:59:43.648Z,39.63
2023-08-14T14:02:46.479Z,39.45
2023-08-14T14:05:49.242Z,39.22
2023-08-14T14:08:52.466Z,39.07
2023-08-14T14:11:55.256Z,38.98
2023-08-14T14:14:58.062Z,38.94
2023-08-14T14:18:00.986Z,38.97
2023-08-14T14:21:04.097Z,38.88
2023-08-14T14:24:07.328Z,38.87
2023-08-14T14:27:10.145Z,38.81
2023-08-14T14:30:13.217Z,38.68
2023-08-14T14:33:16.195Z,38.77
2023-08-14T14:36:18.961Z,38.66
2023-08-14T14:39:21.729Z,38.60
2023-08-14T14:42:26.114Z,38.73
2023-08-14T14:45:34.842Z,38.47
2023-08-14T14:48:38.317Z,38.40
2023-08-14T14:51:41.303Z,38.62
2023-08-14T14:54:44.170Z,39.14
2023-08-14T14:57:46.936Z,40.13
2023-08-14T15:00:51.738Z,40.70
2023-08-14T15:03:54.730Z,41.58
2023-08-14T15:07:03.117Z,41.98
2023-08-14T15:10:06.540Z,42.28
2023-08-14T15:13:09.323Z,42.62
2023-08-14T15:16:12.118Z,42.94
2023-08-14T15:19:16.279Z,43.16
2023-08-14T15:22:19.104Z,43.60
2023-08-14T15:25:22.733Z,44.48
2023-08-14T15:28:25.469Z,44.85
2023-08-14T15:31:28.298Z,45.26
2023-08-14T15:34:31.603Z,45.67
2023-08-14T15:37:35.184Z,46.19
2023-08-14T15:40:46.347Z,46.18
2023-08-14T15:43:49.127Z,46.34
2023-08-14T15:46:51.999Z,46.70
2023-08-14T15:49:54.786Z,46.84
2023-08-14T15:52:57.623Z,47.10
2023-08-14T15:56:00.392Z,47.51
2023-08-14T15:59:03.469Z,48.26
2023-08-14T16:02:06.951Z,48.39
2023-08-14T16:05:10.022Z,48.80
2023-08-14T16:08:13.305Z,49.14
2023-08-14T16:11:16.171Z,49.11
2023-08-14T16:14:18.867Z,49.57
2023-08-14T16:17:21.651Z,49.79
2023-08-14T16:20:24.377Z,49.76
2023-08-14T16:23:27.237Z,49.44
2023-08-14T16:26:30.212Z,49.09
2023-08-14T16:29:33.291Z,48.70
2023-08-14T16:32:35.988Z,48.87
2023-08-14T16:35:38.723Z,48.79
2023-08-14T16:38:41.437Z,48.78
2023-08-14T16:41:44.748Z,48.88
2023-08-14T16:44:47.637Z,48.82
2023-08-14T16:47:50.416Z,48.77
2023-08-14T16:50:54.101Z,49.13
2023-08-14T16:53:56.820Z,49.35
2023-08-14T16:56:59.534Z,49.63
2023-08-14T17:00:02.413Z,50.05
2023-08-14T17:03:06.162Z,49.97
2023-08-14T17:06:09.265Z,50.30
2023-08-14T17:09:14.932Z,50.28
2023-08-14T17:12:18.460Z,50.26
2023-08-14T17:15:21.464Z,50.11
2023-08-14T17:18:24.743Z,49.78
2023-08-14T17:21:27.454Z,49.51
2023-08-14T17:24:30.377Z,49.38
2023-08-14T17:27:33.152Z,49.53
2023-08-14T17:30:39.078Z,49.64
2023-08-14T17:33:42.106Z,49.70
2023-08-14T17:36:45.026Z,49.80
2023-08-14T17:39:47.897Z,49.86
2023-08-14T17:42:51.272Z,50.21
2023-08-14T17:45:54.686Z,50.34
2023-08-14T17:48:57.523Z,50.32
2023-08-14T17:52:00.256Z,50.48
2023-08-14T17:55:03.166Z,50.76
2023-08-14T17:58:05.931Z,51.15
2023-08-14T18:01:08.724Z,51.84
2023-08-14T18:04:11.571Z,52.14
2023-08-14T18:07:15.669Z,52.29
2023-08-14T18:10:19.922Z,52.82
2023-08-14T18:13:22.745Z,53.17
2023-08-14T18:16:25.602Z,53.57
2023-08-14T18:19:29.848Z,53.79
2023-08-14T18:22:32.985Z,54.09
2023-08-14T18:25:35.777Z,54.61
2023-08-14T18:28:38.674Z,54.78
2023-08-14T18:31:41.438Z,55.10
2023-08-14T18:34:44.566Z,55.27
2023-08-14T18:37:47.439Z,55.33
2023-08-14T18:40:50.317Z,55.24
2023-08-14T18:43:53.076Z,54.69
2023-08-14T18:46:55.956Z,54.25
2023-08-14T18:49:59.022Z,54.16
2023-08-14T18:53:03.427Z,54.06
2023-08-14T18:56:06.191Z,54.00
2023-08-14T18:59:11.924Z,53.88
2023-08-14T19:02:15.265Z,53.77
2023-08-14T19:05:18.590Z,53.52
2023-08-14T19:08:21.355Z,53.63
2023-08-14T19:11:24.231Z,53.54
2023-08-14T19:14:27.105Z,53.52
2023-08-14T19:17:29.885Z,53.80
2023-08-14T19:20:32.630Z,54.16
2023-08-14T19:23:35.608Z,54.61
2023-08-14T19:26:38.373Z,54.93
2023-08-14T19:29:42.784Z,55.01
2023-08-14T19:32:45.590Z,55.22
2023-08-14T19:35:48.520Z,55.41
2023-08-14T19:38:56.506Z,55.35
2023-08-14T19:41:59.270Z,55.37
2023-08-14T19:45:02.059Z,55.47
2023-08-14T19:48:05.380Z,56.09
2023-08-14T19:51:09.487Z,56.24
2023-08-14T19:54:12.291Z,56.19
2023-08-14T19:57:15.158Z,56.22
2023-08-14T20:00:18.231Z,56.35
2023-08-14T20:03:21.008Z,56.19
2023-08-14T20:06:24.702Z,56.09
2023-08-14T20:09:27.559Z,56.17
2023-08-14T20:12:30.328Z,56.36
2023-08-14T20:15:33.708Z,56.63
2023-08-14T20:18:36.516Z,56.81
2023-08-14T20:21:41.287Z,57.19
2023-08-14T20:24:44.060Z,57.45
2023-08-14T20:27:46.980Z,57.75
2023-08-14T20:30:50.042Z,57.75
2023-08-14T20:33:53.897Z,58.06
2023-08-14T20:36:56.659Z,60.63
2023-08-14T20:39:59.532Z,60.51
2023-08-14T20:43:09.765Z,61.64
2023-08-14T20:46:12.663Z,62.73
2023-08-14T20:49:15.408Z,63.50
2023-08-14T20:52:23.301Z,62.83
2023-08-14T20:55:26.474Z,64.40
2023-08-14T20:58:29.241Z,64.96
2023-08-14T21:01:31.996Z,64.90
2023-08-14T21:04:35.914Z,64.27
2023-08-14T21:07:38.779Z,63.47
2023-08-14T21:10:42.770Z,63.18
2023-08-14T21:13:45.445Z,63.48
2023-08-14T21:16:48.211Z,63.65
2023-08-14T21:19:50.931Z,63.47
2023-08-14T21:23:02.012Z,63.45
2023-08-14T21:26:04.703Z,63.52
2023-08-14T21:29:07.565Z,63.30
2023-08-14T21:32:13.632Z,63.23
2023-08-14T21:35:16.481Z,63.24
2023-08-14T21:38:19.271Z,63.72
2023-08-14T21:41:22.125Z,63.77
2023-08-14T21:44:24.886Z,63.82
2023-08-14T21:47:27.678Z,63.71
2023-08-14T21:50:30.464Z,63.75
2023-08-14T21:53:33.399Z,63.73
2023-08-14T21:56:36.257Z,63.61
2023-08-14T21:59:39.022Z,63.57
2023-08-14T22:02:41.949Z,63.77
2023-08-14T22:05:44.859Z,63.60
2023-08-14T22:08:47.988Z,63.21
2023-08-14T22:11:51.014Z,62.82
2023-08-14T22:14:53.772Z,62.43
2023-08-14T22:17:56.562Z,62.24
2023-08-14T22:20:59.311Z,62.08
2023-08-14T22:24:02.183Z,61.84
2023-08-14T22:27:06.540Z,61.90
2023-08-14T22:30:09.908Z,61.78
2023-08-14T22:33:12.788Z,61.74
2023-08-14T22:36:15.603Z,61.65
2023-08-14T22:39:18.446Z,61.58
2023-08-14T22:42:22.875Z,61.60
2023-08-14T22:45:26.086Z,61.54
2023-08-14T22:48:28.979Z,61.26
2023-08-14T22:51:31.842Z,61.06
2023-08-14T22:54:35.795Z,61.15
2023-08-14T22:57:38.561Z,61.16
2023-08-14T23:00:41.333Z,61.12
2023-08-14T23:03:51.212Z,61.14
2023-08-14T23:06:54.228Z,61.04
2023-08-14T23:09:56.893Z,61.05
2023-08-14T23:12:59.769Z,61.11
2023-08-14T23:16:05.706Z,61.11
2023-08-14T23:19:08.589Z,61.38
2023-08-14T23:22:12.369Z,61.38
2023-08-14T23:25:15.242Z,61.34
2023-08-14T23:28:18.023Z,61.32
2023-08-14T23:31:21.726Z,61.46
2023-08-14T23:34:24.874Z,61.35
2023-08-14T23:37:27.744Z,61.55
2023-08-14T23:40:30.506Z,61.43
2023-08-14T23:43:33.284Z,61.55
2023-08-14T23:46:36.069Z,61.64
2023-08-14T23:49:38.913Z,61.84
2023-08-14T23:52:41.683Z,61.87
2023-08-14T23:55:46.090Z,61.90
2023-08-14T23:58:48.904Z,62.02
